Requena, Spain
Current Conditions -  °F | °C
As of 7:00 AM on Thursday 23 Oct 2014 (Local Time) from LEVC Reporting Station
Clear Clear  
Wind Chill: 52°   Ceiling: Unl
Heat Index: 52°   Visibility: 6mi
Dew Point: 48°   Wind: 5mph
Humidity: 88%   Direction: 290°WNW
Pressure: 30.18"   Gusts: NA
Location:  39.49°N, 1.1°W
Report Text: LEVC 230500Z 29004KT CAVOK 11/09 Q1022 NOSIG
Loading
Personal Weather Stations






























Interactive Weather Map
Tropical Storm Tracking
New forecast layout! Learn more

10-Day Weather Forecast

Advertisements
Track Severe Weather on mobile